Time;durP1;ratioP1;P1;durP2;ratioP2;P2;SDS_P1;SDS_P2;PMS_P1;PMS_P2;Temp;Humidity;BMP_temperature;BMP_pressure;BME280_temperature;BME280_humidity;BME280_pressure;Samples;Min_cycle;Max_cycle;Signal;HPM_P1;HPM_P2
2021/07/13 00:00:19;;;;;;;5.80;2.65;;;;;;;18.92;100.00;95076.06;1031865;28;20026;-51
2021/07/13 00:00:50;;;;;;;4.00;2.58;;;;;;;18.95;100.00;95073.00;1031716;28;20507;-51
2021/07/13 00:01:20;;;;;;;5.07;2.75;;;;;;;18.94;100.00;95065.22;1031852;28;20031;-51
2021/07/13 00:01:51;;;;;;;6.03;2.78;;;;;;;18.90;100.00;95071.91;1031847;28;20030;-51
2021/07/13 00:02:22;;;;;;;5.85;3.05;;;;;;;18.94;100.00;95074.03;1031848;28;20026;-52
2021/07/13 00:02:52;;;;;;;4.10;2.55;;;;;;;18.92;100.00;95068.09;1031617;28;20489;-50
2021/07/13 00:03:23;;;;;;;5.47;2.47;;;;;;;18.89;100.00;95078.25;1031842;28;20014;-52
2021/07/13 00:03:54;;;;;;;4.45;3.13;;;;;;;18.87;100.00;95073.09;1031373;28;20018;-51
2021/07/13 00:04:25;;;;;;;6.55;2.95;;;;;;;18.89;100.00;95078.25;1035611;28;20071;-51
2021/07/13 00:04:55;;;;;;;6.25;2.75;;;;;;;18.83;100.00;95077.94;1035383;28;20053;-50
2021/07/13 00:05:26;;;;;;;5.50;2.88;;;;;;;18.83;100.00;95080.59;1035597;28;20022;-50
2021/07/13 00:05:57;;;;;;;5.25;2.88;;;;;;;18.83;100.00;95075.28;1035454;28;20018;-51
2021/07/13 00:06:27;;;;;;;3.67;2.72;;;;;;;18.81;100.00;95068.53;1031887;28;20022;-51
2021/07/13 00:06:58;;;;;;;5.65;2.85;;;;;;;18.77;100.00;95070.69;1031654;28;20072;-51
2021/07/13 00:07:29;;;;;;;5.82;2.67;;;;;;;18.79;100.00;95075.81;1031812;28;20052;-50
2021/07/13 00:08:00;;;;;;;4.00;2.65;;;;;;;18.81;100.00;95079.16;1031875;28;20084;-52
2021/07/13 00:08:30;;;;;;;5.05;2.72;;;;;;;18.81;100.00;95068.53;1031802;28;20527;-51
2021/07/13 00:09:02;;;;;;;7.47;2.90;;;;;;;18.81;100.00;95073.84;1027295;28;20015;-51
2021/07/13 00:09:33;;;;;;;6.25;2.63;;;;;;;18.77;100.00;95067.19;1027459;28;20015;-51
2021/07/13 00:10:06;;;;;;;4.35;2.78;;;;;;;18.77;100.00;95070.69;1027544;28;20026;-51
2021/07/13 00:10:39;;;;;;;6.22;2.80;;;;;;;18.80;100.00;95069.50;1028186;28;20011;-50
2021/07/13 00:11:10;;;;;;;5.10;2.60;;;;;;;18.79;100.00;95071.31;1031740;28;20029;-50
2021/07/13 00:11:41;;;;;;;4.85;2.88;;;;;;;18.77;100.00;95080.47;1031887;28;20089;-51
2021/07/13 00:12:11;;;;;;;4.72;2.67;;;;;;;18.78;100.00;95076.81;1031927;28;20015;-52
2021/07/13 00:12:43;;;;;;;7.38;2.88;;;;;;;18.73;100.00;95072.06;1031770;28;20512;-51
2021/07/13 00:13:13;;;;;;;5.90;2.80;;;;;;;18.73;100.00;95073.88;1031724;28;20014;-51
2021/07/13 00:13:44;;;;;;;4.45;2.67;;;;;;;18.75;100.00;95088.63;1031176;28;20393;-50
2021/07/13 00:14:15;;;;;;;5.97;3.00;;;;;;;18.72;100.00;95094.28;1031864;28;20019;-50
2021/07/13 00:14:46;;;;;;;5.20;2.85;;;;;;;18.76;100.00;95084.13;1031666;28;20054;-50
2021/07/13 00:15:26;;;;;;;5.72;3.10;;;;;;;18.77;100.00;95086.63;1031792;28;20014;-51
2021/07/13 00:15:56;;;;;;;6.65;2.90;;;;;;;18.80;100.00;95096.03;1031955;28;20031;-51
2021/07/13 00:16:27;;;;;;;4.10;3.03;;;;;;;18.78;100.00;95093.56;1031891;28;20034;-51
2021/07/13 00:16:58;;;;;;;5.78;2.60;;;;;;;18.78;100.00;95090.91;1031809;28;20014;-52
2021/07/13 00:17:29;;;;;;;4.47;2.70;;;;;;;18.80;100.00;95106.66;1031825;28;20365;-51
2021/07/13 00:18:00;;;;;;;3.90;2.50;;;;;;;18.78;100.00;95103.34;1031788;28;20101;-50
2021/07/13 00:18:31;;;;;;;4.95;3.05;;;;;;;18.78;100.00;95104.16;1031865;28;20023;-50
2021/07/13 00:19:02;;;;;;;6.30;2.97;;;;;;;18.80;100.00;95110.16;1031825;28;20018;-52
2021/07/13 00:19:34;;;;;;;5.55;2.80;;;;;;;18.79;100.00;95108.47;1031683;28;20010;-50
2021/07/13 00:20:06;;;;;;;3.45;2.35;;;;;;;18.82;100.00;95107.31;1031764;28;20432;-50
2021/07/13 00:20:37;;;;;;;5.60;2.85;;;;;;;18.88;100.00;95116.41;1031883;28;20473;-51
2021/07/13 00:21:08;;;;;;;5.75;2.92;;;;;;;18.86;100.00;95116.56;1031742;28;20053;-50
2021/07/13 00:21:39;;;;;;;5.97;2.70;;;;;;;18.87;100.00;95117.41;1031725;28;20392;-51
2021/07/13 00:22:09;;;;;;;4.70;3.15;;;;;;;18.84;100.00;95118.59;1031847;28;20011;-51
2021/07/13 00:22:40;;;;;;;4.82;2.70;;;;;;;18.79;100.00;95115.63;1031722;28;20026;-51
2021/07/13 00:23:11;;;;;;;4.20;2.90;;;;;;;18.76;100.00;95119.44;1031819;28;20093;-51
2021/07/13 00:23:42;;;;;;;6.20;2.80;;;;;;;18.76;100.00;95116.78;1031057;28;20052;-51
2021/07/13 00:24:13;;;;;;;4.53;2.40;;;;;;;18.76;100.00;95122.09;1031780;28;20094;-52
2021/07/13 00:24:44;;;;;;;5.07;2.80;;;;;;;18.76;100.00;95114.13;1031782;28;20041;-52
2021/07/13 00:25:15;;;;;;;4.80;2.80;;;;;;;18.75;100.00;95109.84;1031765;28;20373;-51
2021/07/13 00:25:46;;;;;;;5.43;2.67;;;;;;;18.80;100.00;95115.47;1031771;28;20019;-49
2021/07/13 00:26:17;;;;;;;5.72;2.75;;;;;;;18.82;100.00;95112.63;1031872;28;20013;-51
2021/07/13 00:26:47;;;;;;;4.00;2.33;;;;;;;18.86;100.00;95119.22;1031824;28;20111;-51
2021/07/13 00:27:18;;;;;;;6.47;2.53;;;;;;;18.74;100.00;95110.03;1031792;28;20109;-52
2021/07/13 00:27:49;;;;;;;5.18;2.58;;;;;;;18.76;100.00;95115.97;1031640;28;20088;-51
2021/07/13 00:28:20;;;;;;;7.13;3.00;;;;;;;18.76;100.00;95111.47;1031798;28;20404;-51
2021/07/13 00:28:50;;;;;;;4.18;2.55;;;;;;;18.75;100.00;95112.50;1031822;28;20026;-50
2021/07/13 00:29:21;;;;;;;4.10;2.80;;;;;;;18.74;100.00;95110.84;1031710;28;20424;-50
2021/07/13 00:29:52;;;;;;;4.75;2.70;;;;;;;18.79;100.00;95112.97;1031659;28;20026;-50
2021/07/13 00:30:23;;;;;;;4.43;2.70;;;;;;;18.77;100.00;95110.50;1031717;28;20030;-51
2021/07/13 00:30:54;;;;;;;5.18;2.67;;;;;;;18.81;100.00;95111.81;1031720;28;20026;-51
2021/07/13 00:31:24;;;;;;;6.45;2.90;;;;;;;18.78;100.00;95109.47;1031836;28;20022;-51
2021/07/13 00:31:55;;;;;;;4.13;2.50;;;;;;;18.78;100.00;95114.78;1031730;28;20018;-51
2021/07/13 00:32:26;;;;;;;5.38;2.88;;;;;;;18.78;100.00;95109.47;1031911;28;20460;-50
2021/07/13 00:32:57;;;;;;;4.07;2.55;;;;;;;18.83;100.00;95107.16;1031746;28;20026;-51
2021/07/13 00:33:28;;;;;;;4.43;2.50;;;;;;;18.87;100.00;95106.81;1031618;28;20034;-51
2021/07/13 00:33:59;;;;;;;4.65;3.10;;;;;;;18.87;100.00;95114.75;1031341;28;20144;-51
2021/07/13 00:34:29;;;;;;;4.05;2.90;;;;;;;18.84;100.00;95107.97;1031709;28;20015;-51
2021/07/13 00:35:00;;;;;;;5.80;2.83;;;;;;;18.83;100.00;95112.47;1031678;28;20088;-50
2021/07/13 00:35:31;;;;;;;4.57;2.67;;;;;;;18.86;100.00;95115.75;1031900;28;20032;-52
2021/07/13 00:36:02;;;;;;;4.53;2.78;;;;;;;18.87;100.00;95114.75;1031780;28;20081;-50
2021/07/13 00:36:33;;;;;;;7.03;2.88;;;;;;;18.90;100.00;95117.88;1031787;28;20391;-48
2021/07/13 00:37:04;;;;;;;4.25;2.85;;;;;;;18.94;100.00;95118.31;1031724;28;20042;-50
2021/07/13 00:37:34;;;;;;;3.42;2.40;;;;;;;18.93;100.00;95114.03;1031843;28;20037;-52
2021/07/13 00:38:05;;;;;;;4.78;2.80;;;;;;;18.95;100.00;95118.16;1031616;28;20026;-51
2021/07/13 00:38:36;;;;;;;4.57;2.70;;;;;;;18.98;100.00;95123.09;1031822;28;20055;-51
2021/07/13 00:39:07;;;;;;;9.18;2.97;;;;;;;19.01;100.00;95124.56;1031561;28;20073;-51
2021/07/13 00:39:37;;;;;;;5.78;2.85;;;;;;;19.03;100.00;95125.22;1031929;28;20018;-50
2021/07/13 00:40:09;;;;;;;7.20;2.97;;;;;;;19.00;100.00;95126.41;1031672;28;20092;-51
2021/07/13 00:40:40;;;;;;;3.65;2.65;;;;;;;18.99;100.00;95114.13;1031983;28;20495;-50
2021/07/13 00:41:11;;;;;;;5.93;2.95;;;;;;;19.00;100.00;95129.06;1032557;28;20411;-50
2021/07/13 00:41:41;;;;;;;3.90;2.50;;;;;;;19.02;100.00;95128.88;1032578;28;20030;-52
2021/07/13 00:42:14;;;;;;;6.53;2.88;;;;;;;19.01;100.00;95133.38;1032572;28;20026;-50
2021/07/13 00:42:46;;;;;;;5.03;2.92;;;;;;;18.93;100.00;95127.31;1032393;28;20024;-50
2021/07/13 00:43:17;;;;;;;4.55;2.92;;;;;;;18.83;100.00;95128.38;1032445;28;20061;-50
2021/07/13 00:43:49;;;;;;;4.03;2.80;;;;;;;18.86;100.00;95132.50;1031930;28;20026;-50
2021/07/13 00:44:20;;;;;;;5.78;2.95;;;;;;;18.86;100.00;95135.16;1032517;28;20025;-50
2021/07/13 00:44:52;;;;;;;6.05;3.40;;;;;;;18.87;100.00;95136.00;1032447;28;20030;-52
2021/07/13 00:45:22;;;;;;;6.68;3.40;;;;;;;18.88;100.00;95132.31;1032505;28;20026;-50
2021/07/13 00:45:53;;;;;;;5.82;2.95;;;;;;;18.83;100.00;95128.38;1032547;28;20097;-50
2021/07/13 00:46:24;;;;;;;8.18;3.08;;;;;;;18.82;100.00;95131.22;1032430;28;20049;-50
2021/07/13 00:46:54;;;;;;;6.45;3.47;;;;;;;18.79;100.00;95126.25;1032400;28;20417;-50
2021/07/13 00:47:26;;;;;;;10.07;3.30;;;;;;;18.76;100.00;95127.41;1032521;28;20023;-51
2021/07/13 00:47:57;;;;;;;6.80;2.92;;;;;;;18.79;100.00;95126.25;1032548;28;20384;-50
2021/07/13 00:48:28;;;;;;;6.30;3.38;;;;;;;18.74;100.00;95128.59;1032502;28;20023;-51
2021/07/13 00:49:03;;;;;;;5.97;3.13;;;;;;;18.71;100.00;95124.47;1032351;28;20022;-50
2021/07/13 00:49:34;;;;;;;4.97;3.28;;;;;;;18.70;100.00;95122.00;1032466;28;20395;-51
2021/07/13 00:50:06;;;;;;;5.07;3.55;;;;;;;18.66;100.00;95126.84;1032372;28;20443;-50
2021/07/13 00:50:37;;;;;;;5.63;3.35;;;;;;;18.68;100.00;95119.53;1032386;28;20377;-52
2021/07/13 00:51:10;;;;;;;4.65;3.15;;;;;;;18.72;100.00;95120.00;1032030;28;20030;-51
2021/07/13 00:51:41;;;;;;;6.10;3.30;;;;;;;18.63;100.00;95122.69;1032529;28;20026;-51
2021/07/13 00:52:12;;;;;;;4.80;2.92;;;;;;;18.67;100.00;95117.06;1032504;28;20018;-51
2021/07/13 00:52:43;;;;;;;4.80;2.83;;;;;;;18.63;100.00;95120.03;1032375;28;20037;-51
2021/07/13 00:53:14;;;;;;;5.43;3.35;;;;;;;18.63;100.00;95119.22;1032336;28;20029;-52
2021/07/13 00:53:45;;;;;;;5.20;3.30;;;;;;;18.62;100.00;95123.72;1031812;28;20481;-51
2021/07/13 00:54:15;;;;;;;5.20;3.00;;;;;;;18.62;100.00;95126.38;1032520;28;20481;-51
2021/07/13 00:54:47;;;;;;;6.65;3.60;;;;;;;18.53;100.00;95116.81;1032387;28;20025;-51
2021/07/13 00:55:18;;;;;;;6.13;3.53;;;;;;;18.52;100.00;95119.66;1032372;28;20019;-51
2021/07/13 00:55:49;;;;;;;6.57;3.10;;;;;;;18.55;100.00;95117.47;1032455;28;20030;-51
2021/07/13 00:56:20;;;;;;;8.02;3.47;;;;;;;18.56;100.00;95116.47;1032572;28;20104;-51
2021/07/13 00:56:52;;;;;;;9.70;2.97;;;;;;;18.59;100.00;95113.44;1032414;28;20027;-51
2021/07/13 00:57:23;;;;;;;5.88;3.30;;;;;;;18.59;100.00;95115.28;1032425;28;20034;-51
2021/07/13 00:57:53;;;;;;;7.47;3.45;;;;;;;18.58;100.00;95113.63;1032482;28;20030;-51
2021/07/13 00:58:25;;;;;;;6.65;3.20;;;;;;;18.53;100.00;95113.34;1032537;28;20037;-51
2021/07/13 00:58:55;;;;;;;5.35;3.20;;;;;;;18.52;100.00;95106.38;1032552;28;20137;-51
2021/07/13 00:59:26;;;;;;;5.63;3.15;;;;;;;18.48;100.00;95113.06;1032240;28;20035;-50
2021/07/13 00:59:57;;;;;;;8.10;3.15;;;;;;;18.52;100.00;95107.19;1032452;28;20022;-50
2021/07/13 01:00:28;;;;;;;5.68;3.13;;;;;;;18.53;100.00;95108.88;1032484;28;20026;-52
2021/07/13 01:00:59;;;;;;;6.22;3.10;;;;;;;18.54;100.00;95110.50;1032376;28;20022;-51
2021/07/13 01:01:30;;;;;;;5.25;3.17;;;;;;;18.56;100.00;95105.88;1032474;28;20501;-51
2021/07/13 01:02:01;;;;;;;4.63;3.20;;;;;;;18.58;100.00;95103.84;1032511;28;20515;-51
2021/07/13 01:02:33;;;;;;;6.53;3.40;;;;;;;18.58;100.00;95108.31;1032485;28;20028;-51
2021/07/13 01:03:05;;;;;;;6.28;3.08;;;;;;;18.59;100.00;95107.31;1032281;28;20046;-51
2021/07/13 01:03:36;;;;;;;4.80;2.92;;;;;;;18.59;100.00;95108.16;1031922;28;20026;-51
2021/07/13 01:04:07;;;;;;;5.47;3.47;;;;;;;18.54;100.00;95109.69;1032459;28;20026;-51
2021/07/13 01:04:40;;;;;;;8.38;2.92;;;;;;;18.56;100.00;95100.56;1032508;28;20046;-50
2021/07/13 01:05:14;;;;;;;5.38;3.38;;;;;;;18.56;100.00;95108.53;1032314;28;20019;-51
2021/07/13 01:05:47;;;;;;;4.63;3.15;;;;;;;18.55;100.00;95109.50;1032460;28;20026;-49
2021/07/13 01:06:18;;;;;;;6.45;3.03;;;;;;;18.50;100.00;95105.75;1032439;28;20068;-49
2021/07/13 01:06:58;;;;;;;4.60;3.08;;;;;;;18.52;100.00;95106.38;1032531;28;20038;-51
2021/07/13 01:07:42;;;;;;;8.93;3.50;;;;;;;18.52;100.00;95098.44;1032326;28;20465;-51
2021/07/13 01:08:29;;;;;;;6.30;3.17;;;;;;;18.55;100.00;95103.38;1032437;28;20608;-51
2021/07/13 01:09:11;;;;;;;5.22;3.30;;;;;;;18.58;100.00;95103.84;1032486;28;20384;-51
2021/07/13 01:09:50;;;;;;;4.85;2.67;;;;;;;18.60;100.00;95106.31;1032351;28;20400;-51
2021/07/13 01:10:41;;;;;;;4.60;3.30;;;;;;;18.61;100.00;95105.31;1032339;28;20109;-51
2021/07/13 01:11:21;;;;;;;4.95;2.90;;;;;;;18.61;100.00;95105.31;1032419;28;20034;-50
2021/07/13 01:11:56;;;;;;;8.00;3.28;;;;;;;18.59;100.00;95109.97;1032308;28;20045;-52
2021/07/13 01:12:52;;;;;;;8.00;3.28;;;;;;;18.60;100.00;95115.13;1032474;28;20044;-51
2021/07/13 01:13:34;;;;;;;7.38;3.22;;;;;;;18.64;100.00;95115.59;1032369;28;20105;-49
2021/07/13 01:14:17;;;;;;;5.43;2.80;;;;;;;18.57;100.00;95112.81;1032333;28;20021;-50
2021/07/13 01:14:51;;;;;;;6.88;3.53;;;;;;;18.57;100.00;95120.75;1032390;28;20022;-50
2021/07/13 01:15:22;;;;;;;4.72;3.08;;;;;;;18.58;100.00;95118.94;1032312;28;20031;-50
2021/07/13 01:15:59;;;;;;;4.60;3.10;;;;;;;18.56;100.00;95121.78;1032316;28;20030;-52
2021/07/13 01:16:49;;;;;;;7.38;3.10;;;;;;;18.55;100.00;95124.63;1032520;28;20018;-51
2021/07/13 01:17:32;;;;;;;5.13;3.03;;;;;;;18.59;100.00;95124.06;1032324;28;20022;-50
2021/07/13 01:18:13;;;;;;;5.13;2.65;;;;;;;18.54;100.00;95130.91;1032255;28;20041;-50
2021/07/13 01:18:48;;;;;;;5.30;2.85;;;;;;;18.55;100.00;95135.22;1032506;28;20498;-50
2021/07/13 01:19:39;;;;;;;4.00;2.75;;;;;;;18.53;100.00;95137.22;1032209;28;20022;-52
2021/07/13 01:20:18;;;;;;;4.35;2.80;;;;;;;18.53;100.00;95132.75;1032210;28;20120;-49
2021/07/13 01:21:16;;;;;;;6.70;2.70;;;;;;;18.52;100.00;95143.53;1032327;28;20019;-51
2021/07/13 01:21:55;;;;;;;4.43;2.70;;;;;;;18.53;100.00;95147.84;1032344;28;20030;-50
2021/07/13 01:22:28;;;;;;;5.70;3.33;;;;;;;18.51;100.00;95155.16;1032438;28;20105;-51
2021/07/13 01:23:04;;;;;;;7.18;3.25;;;;;;;18.50;100.00;95158.78;1032284;28;20037;-50
2021/07/13 01:23:54;;;;;;;4.80;3.22;;;;;;;18.49;100.00;95157.97;1031919;28;20018;-51
2021/07/13 01:24:44;;;;;;;6.85;3.58;;;;;;;18.49;100.00;95167.75;1032328;28;20093;-51
2021/07/13 01:25:24;;;;;;;8.73;2.97;;;;;;;18.48;100.00;95166.94;1032278;28;20057;-52
2021/07/13 01:25:56;;;;;;;;;;;;;;;18.49;100.00;95173.91;1032838;28;20026;-52
2021/07/13 01:26:47;;;;;;;6.97;3.80;;;;;;;18.46;100.00;95168.94;1032277;28;19910;-51
2021/07/13 01:27:36;;;;;;;6.53;3.17;;;;;;;18.41;100.00;95180.09;1032294;28;20026;-50
2021/07/13 01:28:10;;;;;;;8.38;3.10;;;;;;;18.42;100.00;95180.91;1032448;28;20023;-51
2021/07/13 01:28:52;;;;;;;4.78;3.25;;;;;;;18.41;100.00;95180.09;1032402;28;20276;-50
2021/07/13 01:29:23;;;;;;;4.65;3.20;;;;;;;18.37;100.00;95186.72;1032233;28;20026;-50
2021/07/13 01:29:54;;;;;;;8.48;3.35;;;;;;;18.32;100.00;95182.94;1032407;28;20055;-50
2021/07/13 01:30:27;;;;;;;5.78;2.95;;;;;;;18.25;100.00;95180.16;1032205;28;20025;-50
2021/07/13 01:31:01;;;;;;;5.35;3.55;;;;;;;18.20;100.00;95175.38;1032443;28;20026;-50
2021/07/13 01:31:32;;;;;;;5.55;3.47;;;;;;;18.17;100.00;95173.09;1032320;28;20488;-51
2021/07/13 01:32:03;;;;;;;9.05;3.30;;;;;;;18.12;100.00;95180.72;1032334;28;20018;-50
2021/07/13 01:32:34;;;;;;;10.98;3.40;;;;;;;18.11;100.00;95175.59;1032300;28;20073;-51
2021/07/13 01:33:08;;;;;;;6.20;3.15;;;;;;;18.10;100.00;95168.66;1032305;28;20010;-51
2021/07/13 01:33:42;;;;;;;7.45;3.50;;;;;;;18.09;100.00;95167.81;1031645;28;20022;-49
2021/07/13 01:34:16;;;;;;;5.43;3.13;;;;;;;18.11;100.00;95160.50;1032377;28;20029;-51
2021/07/13 01:34:54;;;;;;;7.25;3.20;;;;;;;18.09;100.00;95153.75;1032207;28;20022;-51
2021/07/13 01:35:28;;;;;;;5.25;3.10;;;;;;;18.08;100.00;95152.09;1032241;28;20022;-50
2021/07/13 01:36:12;;;;;;;6.32;2.97;;;;;;;18.07;100.00;95143.31;1032364;28;20033;-51
2021/07/13 01:36:46;;;;;;;8.82;3.45;;;;;;;18.03;100.00;95139.34;1032213;28;20506;-50
2021/07/13 01:37:17;;;;;;;5.80;3.67;;;;;;;18.11;100.00;95133.19;1032242;28;20030;-50
2021/07/13 01:37:49;;;;;;;6.60;3.55;;;;;;;18.09;100.00;95125.41;1032237;28;20022;-50
2021/07/13 01:38:21;;;;;;;6.93;3.30;;;;;;;18.11;100.00;95118.09;1032360;28;20493;-50
2021/07/13 01:38:53;;;;;;;8.68;3.83;;;;;;;18.13;100.00;95109.97;1032224;28;20104;-50
2021/07/13 01:39:23;;;;;;;3.70;2.90;;;;;;;18.11;100.00;95096.88;1032136;28;20018;-50
2021/07/13 01:39:54;;;;;;;9.25;3.78;;;;;;;18.10;100.00;95094.44;1032241;28;20026;-50
2021/07/13 01:40:25;;;;;;;5.28;3.30;;;;;;;18.08;100.00;95081.34;1032297;28;20049;-50
2021/07/13 01:41:00;;;;;;;6.00;3.22;;;;;;;18.12;100.00;95081.81;1032172;28;20037;-51
2021/07/13 01:41:31;;;;;;;5.15;3.40;;;;;;;18.10;100.00;95074.03;1032286;28;20026;-49
2021/07/13 01:42:03;;;;;;;7.72;3.55;;;;;;;18.12;100.00;95063.25;1032346;28;20022;-51
2021/07/13 01:42:35;;;;;;;4.80;2.95;;;;;;;18.09;100.00;95047.69;1032356;28;20018;-50
2021/07/13 01:43:06;;;;;;;6.35;3.38;;;;;;;18.14;100.00;95037.41;1032124;28;20057;-49
2021/07/13 01:43:38;;;;;;;4.63;3.38;;;;;;;18.13;100.00;95038.38;1031545;28;20388;-48
2021/07/13 01:44:09;;;;;;;6.22;3.15;;;;;;;18.11;100.00;95033.25;1032316;28;20022;-51
2021/07/13 01:44:40;;;;;;;4.88;3.25;;;;;;;18.11;100.00;95027.94;1027967;28;20115;-50
2021/07/13 01:45:11;;;;;;;4.15;2.85;;;;;;;18.14;100.00;95019.66;1027817;28;20041;-50
2021/07/13 01:45:42;;;;;;;6.53;3.50;;;;;;;18.22;100.00;95018.75;1028061;28;20041;-50
2021/07/13 01:46:12;;;;;;;5.05;2.92;;;;;;;18.26;100.00;95009.44;1028319;28;20477;-50
2021/07/13 01:46:44;;;;;;;6.65;3.30;;;;;;;18.30;100.00;95009.91;1032532;28;20488;-51
2021/07/13 01:47:15;;;;;;;4.88;2.83;;;;;;;18.28;100.00;95007.44;1032113;28;20092;-51
2021/07/13 01:47:46;;;;;;;9.20;3.45;;;;;;;18.31;100.00;95004.44;1032284;28;20212;-50
2021/07/13 01:48:16;;;;;;;6.32;3.10;;;;;;;18.32;100.00;94998.13;1032277;28;20018;-52
2021/07/13 01:48:48;;;;;;;5.75;3.20;;;;;;;18.33;100.00;94999.78;1032405;28;20029;-51
2021/07/13 01:49:21;;;;;;;7.80;3.42;;;;;;;18.31;100.00;94999.13;1032029;28;20022;-51
2021/07/13 01:49:51;;;;;;;4.55;2.80;;;;;;;18.33;100.00;95001.59;1032044;28;20026;-51
2021/07/13 01:50:22;;;;;;;7.47;3.08;;;;;;;18.31;100.00;94995.66;1032367;28;20101;-51
2021/07/13 01:50:53;;;;;;;5.72;3.00;;;;;;;18.32;100.00;95006.09;1032281;28;20477;-51
2021/07/13 01:51:23;;;;;;;5.20;2.88;;;;;;;18.34;100.00;95003.25;1031776;28;20022;-50
2021/07/13 01:51:55;;;;;;;8.93;3.30;;;;;;;18.35;100.00;95007.56;1032205;28;20137;-52
2021/07/13 01:52:27;;;;;;;5.88;3.55;;;;;;;18.34;100.00;95016.50;1031676;28;20030;-51
2021/07/13 01:52:58;;;;;;;5.65;3.13;;;;;;;18.36;100.00;95022.47;1032171;28;20018;-52
2021/07/13 01:53:29;;;;;;;4.68;3.05;;;;;;;18.36;100.00;95012.69;1031664;28;20480;-50
2021/07/13 01:54:04;;;;;;;5.35;3.10;;;;;;;18.34;100.00;95017.34;1031998;28;20014;-50
2021/07/13 01:54:35;;;;;;;4.03;3.20;;;;;;;18.36;100.00;95030.44;1032307;28;20528;-51
2021/07/13 01:55:06;;;;;;;4.95;3.35;;;;;;;18.34;100.00;95020.00;1032216;28;20022;-50
2021/07/13 01:55:38;;;;;;;5.82;3.08;;;;;;;18.36;100.00;95025.13;1032036;28;20384;-51
2021/07/13 01:56:10;;;;;;;4.30;3.05;;;;;;;18.41;100.00;95028.06;1032317;28;20022;-50
2021/07/13 01:56:41;;;;;;;7.18;3.10;;;;;;;18.42;100.00;95032.38;1032320;28;20496;-50
2021/07/13 01:57:12;;;;;;;4.32;2.92;;;;;;;18.43;100.00;95037.50;1032294;28;20019;-53
2021/07/13 01:57:43;;;;;;;6.85;3.50;;;;;;;18.41;100.00;95042.16;1032090;28;20018;-50
2021/07/13 01:58:15;;;;;;;7.68;3.47;;;;;;;18.40;100.00;95045.78;1032302;28;20022;-51
2021/07/13 01:58:45;;;;;;;4.57;3.00;;;;;;;18.45;100.00;95051.41;1032179;28;20015;-50
2021/07/13 01:59:18;;;;;;;8.63;3.25;;;;;;;18.46;100.00;95057.53;1032251;28;20022;-51
2021/07/13 01:59:48;;;;;;;4.00;2.80;;;;;;;18.42;100.00;95062.34;1031966;28;20045;-51
2021/07/13 02:00:19;;;;;;;4.65;3.13;;;;;;;18.45;100.00;95055.88;1032254;28;20033;-48
2021/07/13 02:00:51;;;;;;;4.85;3.20;;;;;;;18.46;100.00;95060.19;1032233;28;20022;-50
2021/07/13 02:01:23;;;;;;;4.22;2.85;;;;;;;18.46;100.00;95065.47;1032283;28;20038;-51
2021/07/13 02:01:58;;;;;;;6.40;2.70;;;;;;;18.46;100.00;95058.34;1032119;28;20022;-51
2021/07/13 02:02:28;;;;;;;4.57;3.15;;;;;;;18.43;100.00;95064.03;1032299;28;20279;-52
2021/07/13 02:02:59;;;;;;;9.73;3.20;;;;;;;18.45;100.00;95064.66;1032226;28;20030;-51
2021/07/13 02:03:30;;;;;;;5.30;3.00;;;;;;;18.46;100.00;95066.28;1031811;28;20492;-51
2021/07/13 02:04:03;;;;;;;4.97;3.42;;;;;;;18.41;100.00;95066.03;1031847;28;20057;-50
2021/07/13 02:04:34;;;;;;;6.20;3.35;;;;;;;18.41;100.00;95068.69;1032257;28;20029;-50
2021/07/13 02:05:06;;;;;;;6.22;2.72;;;;;;;18.41;100.00;95076.63;1032258;28;20018;-51
2021/07/13 02:05:38;;;;;;;5.50;3.13;;;;;;;18.41;100.00;95078.44;1032085;28;20026;-52
2021/07/13 02:06:09;;;;;;;5.95;2.80;;;;;;;18.40;100.00;95071.50;1027830;28;20025;-52
2021/07/13 02:06:42;;;;;;;5.60;3.25;;;;;;;18.37;100.00;95074.50;1027960;28;20033;-50
2021/07/13 02:07:13;;;;;;;6.30;2.88;;;;;;;18.35;100.00;95077.31;1027842;28;20089;-52
2021/07/13 02:07:46;;;;;;;5.57;3.35;;;;;;;18.37;100.00;95070.00;1028202;28;20029;-51
2021/07/13 02:08:17;;;;;;;4.15;3.05;;;;;;;18.35;100.00;95064.06;1032243;28;20384;-51
2021/07/13 02:08:48;;;;;;;6.00;2.95;;;;;;;18.28;100.00;95065.78;1032240;28;20019;-51
2021/07/13 02:09:18;;;;;;;4.45;3.00;;;;;;;18.31;100.00;95070.72;1032219;28;20486;-50
2021/07/13 02:09:49;;;;;;;6.13;3.03;;;;;;;18.27;100.00;95059.66;1031951;28;20085;-51
2021/07/13 02:10:20;;;;;;;5.72;3.35;;;;;;;18.27;100.00;95058.84;1032165;28;20018;-51
2021/07/13 02:10:51;;;;;;;5.30;3.13;;;;;;;18.25;100.00;95056.34;1032203;28;20072;-51
2021/07/13 02:11:22;;;;;;;4.95;3.10;;;;;;;18.25;100.00;95066.16;1032200;28;20053;-51
2021/07/13 02:11:53;;;;;;;5.72;3.20;;;;;;;18.24;100.00;95065.34;1032058;28;20053;-52
2021/07/13 02:12:24;;;;;;;8.65;3.53;;;;;;;18.28;100.00;95068.41;1032224;28;20380;-50
2021/07/13 02:12:55;;;;;;;7.22;2.95;;;;;;;18.29;100.00;95071.91;1032165;28;20026;-51
2021/07/13 02:13:25;;;;;;;6.95;3.13;;;;;;;18.32;100.00;95075.03;1032003;28;20037;-50
2021/07/13 02:13:56;;;;;;;5.70;3.33;;;;;;;18.39;100.00;95075.16;1031570;28;20469;-50
2021/07/13 02:14:27;;;;;;;7.10;3.33;;;;;;;18.42;100.00;95072.97;1032156;28;20010;-50
2021/07/13 02:14:57;;;;;;;6.82;2.90;;;;;;;18.43;100.00;95073.78;1032233;28;20130;-51
2021/07/13 02:15:28;;;;;;;4.40;3.00;;;;;;;18.42;100.00;95072.97;1032170;28;20015;-50
2021/07/13 02:15:59;;;;;;;5.18;2.47;;;;;;;18.43;100.00;95073.78;1032088;28;20440;-50
2021/07/13 02:16:30;;;;;;;5.32;2.75;;;;;;;18.41;100.00;95070.50;1032106;28;20018;-51
2021/07/13 02:17:01;;;;;;;5.07;2.80;;;;;;;18.39;100.00;95073.34;1032150;28;20058;-51
2021/07/13 02:17:31;;;;;;;5.63;3.30;;;;;;;18.43;100.00;95073.78;1027738;28;20169;-51
2021/07/13 02:18:03;;;;;;;5.90;2.63;;;;;;;18.42;100.00;95077.44;1027871;28;20018;-50
2021/07/13 02:18:34;;;;;;;4.85;2.85;;;;;;;18.42;100.00;95077.44;1027801;28;20473;-50
2021/07/13 02:19:06;;;;;;;5.78;3.00;;;;;;;18.43;100.00;95071.13;1028091;28;20014;-49
2021/07/13 02:19:36;;;;;;;7.22;2.95;;;;;;;18.44;100.00;95070.97;1032124;28;20011;-50
2021/07/13 02:20:09;;;;;;;5.85;3.20;;;;;;;18.43;100.00;95069.31;1032064;28;20033;-51
2021/07/13 02:20:40;;;;;;;7.38;2.72;;;;;;;18.46;100.00;95068.13;1032002;28;20010;-51
2021/07/13 02:21:11;;;;;;;5.78;2.83;;;;;;;18.50;100.00;95071.25;1032185;28;20026;-50
2021/07/13 02:21:41;;;;;;;3.80;2.90;;;;;;;18.58;100.00;95068.53;1032101;28;20041;-51
2021/07/13 02:22:12;;;;;;;5.85;2.83;;;;;;;18.58;100.00;95066.72;1032099;28;20077;-52
2021/07/13 02:22:43;;;;;;;5.68;3.08;;;;;;;18.55;100.00;95059.09;1032008;28;20018;-51
2021/07/13 02:23:13;;;;;;;6.30;2.90;;;;;;;18.50;100.00;95055.34;1032198;28;20422;-51
2021/07/13 02:23:45;;;;;;;6.18;2.95;;;;;;;18.48;100.00;95054.69;1031480;28;20026;-50
2021/07/13 02:24:16;;;;;;;6.38;3.00;;;;;;;18.51;100.00;95055.16;1032166;28;20489;-51
2021/07/13 02:24:47;;;;;;;4.95;3.30;;;;;;;18.49;100.00;95049.22;1032018;28;20014;-50
2021/07/13 02:25:18;;;;;;;5.10;2.70;;;;;;;18.49;100.00;95048.38;1032063;28;20047;-52
2021/07/13 02:25:49;;;;;;;9.52;3.47;;;;;;;18.49;100.00;95046.56;1032072;28;20029;-51
2021/07/13 02:26:22;;;;;;;3.90;2.88;;;;;;;18.50;100.00;95050.03;1032213;28;20021;-51
2021/07/13 02:26:56;;;;;;;4.95;2.83;;;;;;;18.46;100.00;95037.13;1032039;28;20026;-51
2021/07/13 02:27:30;;;;;;;7.30;3.15;;;;;;;18.48;100.00;95038.78;1032197;28;20599;-51
2021/07/13 02:28:13;;;;;;;6.32;2.95;;;;;;;18.47;100.00;95030.00;1031976;28;20031;-50
2021/07/13 02:28:45;;;;;;;6.70;2.97;;;;;;;18.49;100.00;95032.44;1032016;28;20029;-51
2021/07/13 02:29:22;;;;;;;5.05;2.90;;;;;;;18.51;100.00;95033.13;1032112;28;20025;-52
2021/07/13 02:29:55;;;;;;;5.78;2.80;;;;;;;18.45;100.00;95026.72;1032022;28;20531;-51
2021/07/13 02:30:27;;;;;;;3.88;2.70;;;;;;;18.45;100.00;95035.47;1032183;28;20098;-51
2021/07/13 02:31:02;;;;;;;4.78;2.92;;;;;;;18.44;100.00;95036.47;1031935;28;20108;-51
2021/07/13 02:31:34;;;;;;;5.15;2.83;;;;;;;18.49;100.00;95033.31;1032105;28;20022;-51
2021/07/13 02:32:07;;;;;;;6.35;2.72;;;;;;;18.48;100.00;95031.63;1032088;28;20481;-51